Time;durP1;ratioP1;P1;durP2;ratioP2;P2;SDS_P1;SDS_P2;PMS_P1;PMS_P2;Temp;Humidity;BMP_temperature;BMP_pressure;BME280_temperature;BME280_humidity;BME280_pressure;Samples;Min_cycle;Max_cycle;Signal;HPM_P1;HPM_P2
2023/05/26 00:01:14;;;;;;;2.03;0.90;;;;;;;10.36;56.32;101577.25;5017276;28;20053;-69
2023/05/26 00:03:44;;;;;;;3.80;0.40;;;;;;;10.28;56.32;101564.22;5018895;28;20190;-69
2023/05/26 00:06:12;;;;;;;2.70;0.47;;;;;;;10.30;56.60;101572.03;5018489;28;20045;-69
2023/05/26 00:08:39;;;;;;;4.50;0.50;;;;;;;10.26;56.67;101565.06;5020225;28;20104;-69
2023/05/26 00:11:06;;;;;;;4.28;0.40;;;;;;;10.23;56.64;101562.47;5014605;28;20049;-69
2023/05/26 00:13:33;;;;;;;4.20;1.05;;;;;;;10.22;56.79;101559.00;5015454;28;20457;-69
2023/05/26 00:16:01;;;;;;;3.90;0.38;;;;;;;10.20;56.85;101560.75;5017482;28;20049;-69
2023/05/26 00:18:28;;;;;;;2.88;0.40;;;;;;;10.19;57.12;101559.03;5020644;28;20080;-69
2023/05/26 00:20:55;;;;;;;2.17;0.40;;;;;;;10.18;57.28;101561.63;5022192;28;20546;-69
2023/05/26 00:23:22;;;;;;;0.65;0.30;;;;;;;10.16;57.12;101553.81;5017794;28;20045;-68
2023/05/26 00:25:50;;;;;;;7.35;0.40;;;;;;;10.16;56.84;101551.22;5018292;28;20068;-69
2023/05/26 00:28:17;;;;;;;5.00;0.50;;;;;;;10.14;57.22;101548.59;5019961;28;20053;-69
2023/05/26 00:30:44;;;;;;;3.22;0.35;;;;;;;10.14;57.48;101551.19;5022143;28;20052;-69
2023/05/26 00:33:12;;;;;;;4.15;0.30;;;;;;;10.12;57.28;101545.09;5021850;28;20038;-69
2023/05/26 00:35:40;;;;;;;4.03;1.05;;;;;;;10.13;57.22;101540.75;5019583;28;20095;-69
2023/05/26 00:38:07;;;;;;;3.95;0.60;;;;;;;10.10;57.13;101539.03;5020376;28;20523;-68
2023/05/26 00:40:34;;;;;;;2.00;0.35;;;;;;;10.09;57.38;101537.28;5016057;28;20060;-69
2023/05/26 00:43:01;;;;;;;4.82;0.57;;;;;;;10.08;56.97;101532.97;5017695;28;20125;-68
2023/05/26 00:45:28;;;;;;;2.35;0.35;;;;;;;10.08;57.39;101537.31;5021580;28;20402;-69
2023/05/26 00:47:55;;;;;;;1.15;0.32;;;;;;;10.06;57.23;101537.31;5017027;28;20046;-69
2023/05/26 00:50:23;;;;;;;4.10;0.43;;;;;;;10.06;57.51;101531.22;5019449;28;20046;-69
2023/05/26 00:52:52;;;;;;;1.95;0.50;;;;;;;10.06;57.59;101533.84;5020049;28;20340;-68
2023/05/26 00:55:20;;;;;;;4.40;0.68;;;;;;;10.04;57.19;101536.44;5016170;28;20041;-69
2023/05/26 00:57:47;;;;;;;4.40;0.50;;;;;;;10.05;57.28;101545.16;5014508;28;20061;-69
2023/05/26 01:00:15;;;;;;;3.17;0.40;;;;;;;10.05;57.41;101546.03;5016732;28;20058;-68
2023/05/26 01:02:44;;;;;;;3.13;0.40;;;;;;;10.05;57.04;101542.56;5017042;28;20135;-69
2023/05/26 01:05:15;;;;;;;4.72;0.50;;;;;;;10.04;57.15;101535.56;5017189;28;20646;-68
2023/05/26 01:07:43;;;;;;;1.52;0.50;;;;;;;10.04;57.26;101531.22;5019643;28;20050;-69
2023/05/26 01:10:11;;;;;;;2.13;0.60;;;;;;;10.04;57.34;101532.97;5016892;28;20470;-68
2023/05/26 01:12:44;;;;;;;5.72;0.90;;;;;;;10.04;57.12;101535.56;5018935;28;20053;-68
2023/05/26 01:15:14;;;;;;;6.70;0.52;;;;;;;10.04;56.95;101533.81;5018074;28;20041;-68
2023/05/26 01:17:45;;;;;;;3.78;0.50;;;;;;;10.04;56.80;101530.34;5020698;28;20048;-69
2023/05/26 01:20:23;;;;;;;6.97;0.80;;;;;;;10.02;56.90;101535.59;5023794;28;20046;-69
2023/05/26 01:23:29;;;;;;;7.30;0.50;;;;;;;10.03;56.76;101536.47;5023988;28;20486;-68
2023/05/26 01:26:22;;;;;;;3.83;0.50;;;;;;;10.01;56.79;101536.44;4997075;28;20046;-69
2023/05/26 01:28:53;;;;;;;6.60;1.20;;;;;;;10.01;57.11;101528.63;4984915;28;20050;-69
2023/05/26 01:31:20;;;;;;;9.77;1.00;;;;;;;10.02;56.76;101527.75;5019239;28;20046;-69
2023/05/26 01:33:47;;;;;;;4.60;0.38;;;;;;;10.02;56.75;101530.38;5018027;28;20395;-69
2023/05/26 01:36:15;;;;;;;1.90;0.40;;;;;;;10.01;56.96;101528.63;5016184;28;20042;-69
2023/05/26 01:38:42;;;;;;;3.55;0.40;;;;;;;10.02;56.63;101527.75;5012048;28;20050;-69
2023/05/26 01:41:19;;;;;;;4.70;0.65;;;;;;;10.02;56.80;101519.94;5019575;28;20038;-68
2023/05/26 01:43:52;;;;;;;2.80;0.45;;;;;;;10.01;56.61;101515.56;5016224;28;20046;-69
2023/05/26 01:46:26;;;;;;;3.83;0.60;;;;;;;10.02;56.68;101517.31;5011105;28;20046;-69
2023/05/26 01:48:57;;;;;;;2.50;0.50;;;;;;;10.01;56.99;101517.31;5017034;28;20414;-68
2023/05/26 01:51:25;;;;;;;4.82;0.40;;;;;;;9.99;56.80;101514.72;5015536;28;20049;-68
2023/05/26 01:53:56;;;;;;;2.83;0.50;;;;;;;10.01;56.81;101517.31;5015505;28;20049;-69
2023/05/26 01:56:26;;;;;;;2.17;0.40;;;;;;;10.00;56.64;101510.38;5017006;28;20049;-69
2023/05/26 01:58:54;;;;;;;3.67;0.40;;;;;;;9.98;56.45;101512.97;5018353;28;20045;-68
2023/05/26 02:01:25;;;;;;;4.55;0.40;;;;;;;10.00;56.26;101512.97;5021160;28;20124;-69
2023/05/26 02:03:52;;;;;;;5.18;0.55;;;;;;;9.97;56.43;101503.41;5017015;28;20057;-69
2023/05/26 02:06:19;;;;;;;6.53;0.57;;;;;;;9.98;56.68;101510.38;5020641;28;20052;-69
2023/05/26 02:08:46;;;;;;;5.30;0.40;;;;;;;9.96;56.71;101501.69;5019398;28;20100;-68
2023/05/26 02:11:13;;;;;;;3.88;0.38;;;;;;;9.97;56.73;101510.38;5018113;28;20045;-68
2023/05/26 02:13:40;;;;;;;1.73;0.50;;;;;;;9.97;56.51;101507.78;5011352;28;21704;-69
2023/05/26 02:16:07;;;;;;;4.43;0.50;;;;;;;9.96;56.51;101512.13;5021284;28;20042;-69
2023/05/26 02:18:36;;;;;;;3.65;0.30;;;;;;;9.96;56.64;101509.53;5022390;28;20050;-69
2023/05/26 02:21:02;;;;;;;5.88;0.43;;;;;;;9.95;56.60;101506.91;5021067;28;20132;-68
2023/05/26 02:23:29;;;;;;;3.25;0.50;;;;;;;9.94;55.98;101500.81;5019938;28;20068;-69
2023/05/26 02:25:56;;;;;;;4.50;0.40;;;;;;;9.97;56.37;101505.16;5019971;28;20048;-68
2023/05/26 02:28:23;;;;;;;8.43;0.70;;;;;;;9.95;56.44;101505.16;5023476;28;20046;-68
2023/05/26 02:30:50;;;;;;;5.47;0.60;;;;;;;9.94;56.65;101505.19;5019659;28;20639;-68
2023/05/26 02:33:17;;;;;;;3.53;0.30;;;;;;;9.96;56.44;101512.13;5020198;28;20052;-68
2023/05/26 02:35:45;;;;;;;4.57;0.50;;;;;;;9.96;56.21;101511.25;5017314;28;20061;-68
2023/05/26 02:38:12;;;;;;;3.55;0.40;;;;;;;9.95;56.15;101507.78;5022998;28;20041;-68
2023/05/26 02:40:39;;;;;;;5.28;0.75;;;;;;;9.96;56.23;101516.47;5018103;28;20058;-68
2023/05/26 02:43:05;;;;;;;5.07;0.47;;;;;;;9.97;56.41;101510.38;5019824;28;20056;-70
2023/05/26 02:45:32;;;;;;;2.55;0.50;;;;;;;9.98;56.28;101514.72;5018153;28;20050;-69
2023/05/26 02:47:59;;;;;;;2.78;0.60;;;;;;;9.98;56.63;101518.19;5020452;28;20132;-69
2023/05/26 02:50:26;;;;;;;6.72;0.40;;;;;;;9.99;56.54;101511.22;5020238;28;20057;-69
2023/05/26 02:52:55;;;;;;;9.75;1.25;;;;;;;9.99;56.27;101512.13;5021795;28;20045;-69
2023/05/26 02:55:24;;;;;;;6.53;0.95;;;;;;;10.01;56.74;101509.50;5018734;28;20046;-70
2023/05/26 02:57:51;;;;;;;4.75;0.50;;;;;;;10.02;56.17;101508.63;5023873;28;20057;-70
2023/05/26 03:00:19;;;;;;;3.17;0.63;;;;;;;9.95;56.39;101499.94;5013079;28;20053;-70
2023/05/26 03:02:46;;;;;;;3.20;0.40;;;;;;;10.03;56.51;101505.13;5021818;28;20049;-69
2023/05/26 03:05:13;;;;;;;2.15;0.47;;;;;;;10.04;56.47;101505.13;5017371;28;20049;-70
2023/05/26 03:07:40;;;;;;;6.75;0.82;;;;;;;10.07;56.39;101507.72;5019106;28;20053;-69
2023/05/26 03:10:10;;;;;;;6.85;0.47;;;;;;;10.06;56.58;101505.97;5019367;28;20050;-70
2023/05/26 03:12:36;;;;;;;3.33;0.43;;;;;;;10.09;56.50;101510.31;5021482;28;20046;-69
2023/05/26 03:15:04;;;;;;;2.88;0.40;;;;;;;10.12;56.83;101512.91;5015999;28;20132;-70
2023/05/26 03:17:31;;;;;;;8.65;0.50;;;;;;;10.12;56.47;101511.16;4990110;28;20585;-69
2023/05/26 03:19:58;;;;;;;1.38;0.40;;;;;;;10.15;56.18;101510.28;5023592;28;20041;-69
2023/05/26 03:22:25;;;;;;;4.78;0.40;;;;;;;10.18;56.32;101518.09;5019870;28;20052;-69
2023/05/26 03:24:52;;;;;;;3.45;0.40;;;;;;;10.21;56.33;101519.84;5017712;28;20049;-70
2023/05/26 03:27:22;;;;;;;2.88;0.50;;;;;;;10.23;56.62;101518.09;5016416;28;20042;-69
2023/05/26 03:29:49;;;;;;;6.85;0.50;;;;;;;10.25;56.53;101517.22;5022139;28;20054;-70
2023/05/26 03:32:16;;;;;;;6.75;0.52;;;;;;;10.27;56.50;101518.09;5019738;28;20405;-69
2023/05/26 03:34:44;;;;;;;5.55;0.47;;;;;;;10.31;56.85;101524.19;5019260;28;20045;-70
2023/05/26 03:37:11;;;;;;;7.15;0.77;;;;;;;10.33;56.78;101523.31;5021973;28;20042;-70
2023/05/26 03:39:38;;;;;;;6.53;1.17;;;;;;;10.35;56.59;101520.66;5020606;28;20053;-69
2023/05/26 03:42:05;;;;;;;5.25;0.50;;;;;;;10.40;56.48;101518.03;5022069;28;20049;-70
2023/05/26 03:44:34;;;;;;;3.67;0.50;;;;;;;10.43;56.60;101523.25;5018147;28;20136;-69
2023/05/26 03:47:01;;;;;;;3.22;0.47;;;;;;;10.46;56.22;101524.09;5020758;28;20054;-70
2023/05/26 03:49:28;;;;;;;5.03;0.63;;;;;;;10.50;56.21;101525.81;5018309;28;20406;-70
2023/05/26 03:51:55;;;;;;;4.43;0.90;;;;;;;10.54;56.63;101527.50;5018508;28;20046;-70
2023/05/26 03:54:21;;;;;;;7.20;0.68;;;;;;;10.56;56.49;101512.72;5017646;28;20045;-70
2023/05/26 03:56:48;;;;;;;6.40;0.50;;;;;;;10.63;56.46;101523.13;5019245;28;20470;-70
2023/05/26 03:59:15;;;;;;;5.93;0.88;;;;;;;10.69;56.46;101521.31;5018429;28;20050;-70
2023/05/26 04:01:43;;;;;;;3.80;0.50;;;;;;;10.75;56.36;101523.03;5017731;28;20062;-70
2023/05/26 04:04:10;;;;;;;4.45;0.55;;;;;;;10.80;55.96;101521.25;5019746;28;20694;-70
2023/05/26 04:06:38;;;;;;;3.25;0.50;;;;;;;10.85;56.18;101524.69;5021746;28;20847;-70
2023/05/26 04:09:05;;;;;;;3.30;0.70;;;;;;;10.91;56.17;101522.03;5023164;28;20053;-70
2023/05/26 04:11:32;;;;;;;7.38;0.73;;;;;;;10.96;55.96;101528.09;5024758;28;20140;-70
2023/05/26 04:13:59;;;;;;;4.47;0.90;;;;;;;11.02;55.93;101535.88;5014972;28;20037;-71
2023/05/26 04:16:26;;;;;;;4.43;0.50;;;;;;;11.10;55.96;101537.56;5016898;28;20125;-70
2023/05/26 04:18:54;;;;;;;4.07;0.73;;;;;;;11.16;55.98;101537.53;5016491;28;20478;-70
2023/05/26 04:21:21;;;;;;;5.35;0.50;;;;;;;11.22;55.63;101538.34;5019615;28;20042;-70
2023/05/26 04:23:51;;;;;;;4.43;0.43;;;;;;;11.31;55.52;101545.22;5019196;28;20515;-70
2023/05/26 04:26:18;;;;;;;7.35;0.68;;;;;;;11.37;55.26;101550.41;5016087;28;20505;-70
2023/05/26 04:28:45;;;;;;;1.75;0.30;;;;;;;11.45;55.08;101540.72;5017728;28;20497;-70
2023/05/26 04:31:16;;;;;;;1.98;0.38;;;;;;;11.55;54.69;101549.34;5017573;28;20128;-70
2023/05/26 04:33:44;;;;;;;1.27;0.35;;;;;;;11.62;54.41;101543.19;5014525;28;20066;-71
2023/05/26 04:36:16;;;;;;;4.28;0.40;;;;;;;11.72;53.88;101546.56;5014411;28;20730;-70
2023/05/26 04:38:45;;;;;;;4.55;0.40;;;;;;;11.81;53.44;101546.47;5018790;28;20158;-70
2023/05/26 04:41:12;;;;;;;4.63;0.20;;;;;;;11.91;52.67;101544.63;5017845;28;20077;-71
2023/05/26 04:43:40;;;;;;;1.20;0.30;;;;;;;12.02;52.34;101547.13;5020060;28;20046;-71
2023/05/26 04:46:08;;;;;;;2.60;0.30;;;;;;;12.11;51.78;101550.50;5018800;28;20705;-71
2023/05/26 04:48:36;;;;;;;3.17;0.30;;;;;;;12.21;51.42;101556.50;5016306;28;20100;-71
2023/05/26 04:51:03;;;;;;;2.45;0.20;;;;;;;12.31;50.97;101552.84;5018860;28;20056;-72
2023/05/26 04:53:31;;;;;;;1.30;0.28;;;;;;;12.41;50.56;101557.97;5019630;28;20041;-72
2023/05/26 04:55:59;;;;;;;2.15;0.20;;;;;;;12.50;49.86;101557.88;5017647;28;20497;-72
2023/05/26 04:58:26;;;;;;;0.98;0.30;;;;;;;12.59;49.42;101560.34;5016701;28;20073;-71
2023/05/26 05:00:53;;;;;;;2.58;0.28;;;;;;;12.68;49.35;101561.97;5015710;28;20057;-71
2023/05/26 05:03:22;;;;;;;2.92;0.20;;;;;;;12.78;48.78;101551.34;5023511;28;20049;-72
2023/05/26 05:05:48;;;;;;;3.17;0.20;;;;;;;12.88;48.55;101564.28;5015727;28;20053;-71
2023/05/26 05:08:16;;;;;;;6.57;0.30;;;;;;;12.97;48.12;101564.16;5021986;28;20426;-71
2023/05/26 05:10:44;;;;;;;1.30;0.47;;;;;;;13.06;47.80;101564.00;5018125;28;20409;-71
2023/05/26 05:13:11;;;;;;;2.53;0.20;;;;;;;13.16;47.90;101572.59;5020009;28;20045;-71
2023/05/26 05:15:38;;;;;;;2.50;0.30;;;;;;;13.27;47.73;101575.94;5017669;28;20059;-71
2023/05/26 05:18:04;;;;;;;3.53;0.20;;;;;;;13.38;47.32;101581.00;5017635;28;20140;-71
2023/05/26 05:20:31;;;;;;;3.45;0.20;;;;;;;13.48;46.44;101582.56;5017151;28;20063;-70
2023/05/26 05:22:58;;;;;;;3.13;0.20;;;;;;;13.58;46.23;101586.78;5020757;28;20045;-71
2023/05/26 05:25:25;;;;;;;3.55;0.20;;;;;;;13.65;45.83;101583.13;5019252;28;20042;-71
2023/05/26 05:27:53;;;;;;;2.75;0.73;;;;;;;13.76;45.73;101587.31;5018100;28;20058;-72
2023/05/26 05:30:20;;;;;;;5.53;0.82;;;;;;;13.83;45.19;101592.44;5019858;28;20041;-71
2023/05/26 05:32:47;;;;;;;0.32;0.10;;;;;;;13.92;44.67;101591.41;5014759;28;20486;-71
2023/05/26 05:35:14;;;;;;;0.60;0.10;;;;;;;13.97;44.70;101586.91;5017980;28;20391;-71
2023/05/26 05:37:41;;;;;;;2.45;0.10;;;;;;;14.09;44.69;101594.56;5014537;28;20050;-71
2023/05/26 05:40:09;;;;;;;5.90;0.20;;;;;;;14.16;44.64;101596.16;5015941;28;20049;-71
2023/05/26 05:42:36;;;;;;;4.10;0.25;;;;;;;14.25;44.05;101596.88;5019765;28;20053;-71
2023/05/26 05:45:06;;;;;;;2.05;0.40;;;;;;;14.31;43.93;101599.38;5016029;28;20057;-69
2023/05/26 05:47:33;;;;;;;1.65;0.20;;;;;;;14.36;43.46;101608.03;5022046;28;20057;-69
2023/05/26 05:50:00;;;;;;;4.78;0.22;;;;;;;14.41;43.51;101608.78;5022565;28;20144;-70
2023/05/26 05:52:26;;;;;;;1.80;0.13;;;;;;;14.43;43.22;101609.63;5022045;28;20523;-69
2023/05/26 05:54:53;;;;;;;3.13;0.20;;;;;;;14.48;43.26;101615.63;5022801;28;20046;-69
2023/05/26 05:57:20;;;;;;;3.53;0.20;;;;;;;14.51;42.58;101622.59;5020345;28;20049;-70
2023/05/26 05:59:47;;;;;;;6.97;0.20;;;;;;;14.51;42.59;101614.72;5020489;28;20046;-69
2023/05/26 06:02:15;;;;;;;2.50;0.20;;;;;;;14.55;41.96;101627.81;5021629;28;20045;-70
2023/05/26 06:04:42;;;;;;;1.48;0.20;;;;;;;14.59;42.03;101628.59;5020966;28;20055;-69
2023/05/26 06:07:09;;;;;;;2.88;0.20;;;;;;;14.62;42.12;101628.53;5022910;28;20042;-70
2023/05/26 06:09:36;;;;;;;0.55;0.20;;;;;;;14.62;42.05;101634.66;5016899;28;20053;-70
2023/05/26 06:12:03;;;;;;;2.90;0.20;;;;;;;14.64;42.26;101639.03;5017302;28;20046;-69
2023/05/26 06:14:30;;;;;;;4.35;0.52;;;;;;;14.64;42.16;101639.03;5018070;28;20525;-69
2023/05/26 06:16:57;;;;;;;2.35;0.20;;;;;;;14.63;41.67;101648.69;5022954;28;20052;-69
2023/05/26 06:19:25;;;;;;;0.55;0.25;;;;;;;14.65;41.76;101659.16;5020147;28;20502;-68
2023/05/26 06:21:52;;;;;;;3.08;0.20;;;;;;;14.65;41.51;101660.00;5022877;28;20482;-68
2023/05/26 06:24:19;;;;;;;0.20;0.20;;;;;;;14.67;41.49;101650.34;5021503;28;20041;-68
2023/05/26 06:26:46;;;;;;;0.40;0.20;;;;;;;14.68;41.79;101661.72;5023170;28;20511;-69
2023/05/26 06:29:13;;;;;;;2.78;0.30;;;;;;;14.69;41.47;101663.47;5017713;28;21066;-69
2023/05/26 06:31:40;;;;;;;1.75;0.30;;;;;;;14.69;41.52;101666.97;5020793;28;20045;-68
2023/05/26 06:34:07;;;;;;;0.30;0.10;;;;;;;14.69;41.41;101663.47;5023727;28;20049;-68
2023/05/26 06:36:35;;;;;;;0.93;0.30;;;;;;;14.72;41.45;101673.91;5017316;28;20045;-69
2023/05/26 06:39:02;;;;;;;0.60;0.20;;;;;;;14.72;41.93;101681.81;5014697;28;20489;-69
2023/05/26 06:41:29;;;;;;;0.85;0.20;;;;;;;14.73;41.86;101673.88;5020823;28;20045;-69
2023/05/26 06:43:56;;;;;;;1.95;0.17;;;;;;;14.75;41.97;101684.38;5023533;28;20054;-68
2023/05/26 06:46:23;;;;;;;0.90;0.20;;;;;;;14.78;41.45;101685.16;5021375;28;20077;-68
2023/05/26 06:48:50;;;;;;;2.30;0.20;;;;;;;14.81;41.15;101681.59;5018865;28;20087;-69
2023/05/26 06:51:17;;;;;;;2.15;0.20;;;;;;;14.84;41.29;101694.69;5020379;28;20041;-69
2023/05/26 06:53:45;;;;;;;3.28;0.20;;;;;;;14.88;40.93;101688.44;5019622;28;20045;-69
2023/05/26 06:56:12;;;;;;;1.30;0.77;;;;;;;14.93;40.85;101685.72;5019091;28;20049;-69
2023/05/26 06:58:39;;;;;;;4.78;0.20;;;;;;;14.97;40.90;101687.38;5023171;28;20046;-69
2023/05/26 07:01:06;;;;;;;1.05;0.30;;;;;;;15.00;40.90;101687.34;5023013;28;20080;-69
2023/05/26 07:03:33;;;;;;;0.82;0.20;;;;;;;15.06;41.17;101695.09;5016267;28;20065;-76
2023/05/26 07:06:00;;;;;;;3.50;0.20;;;;;;;15.12;41.12;101707.25;5019618;28;20461;-74
2023/05/26 07:08:28;;;;;;;2.58;0.30;;;;;;;15.17;40.86;101700.97;5025768;28;20045;-77
2023/05/26 07:10:56;;;;;;;2.03;1.10;;;;;;;15.25;40.89;101703.41;5014753;28;20133;-75
2023/05/26 07:13:23;;;;;;;1.17;0.20;;;;;;;15.33;40.85;101716.41;5024065;28;20049;-76
2023/05/26 07:15:51;;;;;;;2.47;0.20;;;;;;;15.41;40.73;101715.31;5139085;23;20058;-70
2023/05/26 07:18:18;;;;;;;4.05;0.20;;;;;;;15.48;40.53;101714.28;4998215;28;20812;-69
2023/05/26 07:20:44;;;;;;;1.58;0.10;;;;;;;15.61;40.23;101729.78;4992911;28;20045;-71
2023/05/26 07:23:11;;;;;;;1.45;0.30;;;;;;;15.67;40.13;101727.00;4996742;28;20072;-69
2023/05/26 07:25:38;;;;;;;0.70;0.20;;;;;;;15.77;40.35;101725.91;5001252;28;20060;-71
2023/05/26 07:28:06;;;;;;;3.22;0.20;;;;;;;15.84;39.44;101716.94;4999548;28;20050;-70
2023/05/26 07:30:33;;;;;;;4.05;0.20;;;;;;;15.96;39.76;101721.03;4997540;28;20049;-70
2023/05/26 07:33:00;;;;;;;3.08;0.20;;;;;;;16.04;39.26;101741.94;4998239;28;20050;-70
2023/05/26 07:35:27;;;;;;;1.13;0.20;;;;;;;16.12;39.24;101739.97;4999370;28;20520;-70
2023/05/26 07:37:54;;;;;;;0.80;0.13;;;;;;;16.20;38.98;101743.25;4998908;28;20038;-70
2023/05/26 07:40:21;;;;;;;0.70;0.17;;;;;;;16.30;38.93;101744.72;5001448;28;20585;-70
2023/05/26 07:42:48;;;;;;;0.30;0.13;;;;;;;16.34;39.21;101737.63;5002738;28;20052;-69
2023/05/26 07:45:16;;;;;;;2.13;0.30;;;;;;;16.49;38.97;101750.38;5003882;28;20048;-70
2023/05/26 07:47:43;;;;;;;1.85;0.20;;;;;;;16.57;38.80;101751.03;4996234;28;20429;-70
2023/05/26 07:50:10;;;;;;;1.33;0.20;;;;;;;16.56;38.58;101733.50;5002151;28;20058;-70
2023/05/26 07:52:37;;;;;;;2.42;0.20;;;;;;;16.74;38.09;101755.84;4999433;28;20046;-71
2023/05/26 07:55:04;;;;;;;3.40;0.20;;;;;;;16.83;37.92;101747.69;4999796;28;20046;-72
2023/05/26 07:57:31;;;;;;;2.15;0.10;;;;;;;16.91;38.39;101751.88;4998291;28;20065;-70
2023/05/26 07:59:58;;;;;;;2.17;0.20;;;;;;;16.95;38.05;101756.16;5001418;28;20056;-70
2023/05/26 08:02:27;;;;;;;1.75;0.20;;;;;;;17.02;37.52;101765.63;4998926;28;20506;-70
2023/05/26 08:04:54;;;;;;;0.65;0.10;;;;;;;17.10;37.87;101760.97;4996785;28;20058;-70
2023/05/26 08:07:21;;;;;;;1.98;0.20;;;;;;;17.15;37.80;101756.41;4997421;28;20106;-70
2023/05/26 08:09:48;;;;;;;7.30;0.50;;;;;;;17.22;38.02;101759.75;4997078;28;20137;-70
2023/05/26 08:12:15;;;;;;;1.13;0.20;;;;;;;17.28;37.59;101762.22;5000725;28;20050;-70
2023/05/26 08:14:42;;;;;;;1.25;0.20;;;;;;;17.36;37.55;101756.66;4991941;28;20062;-69
2023/05/26 08:17:09;;;;;;;2.42;0.20;;;;;;;17.34;37.16;101748.81;4980638;28;20061;-70
2023/05/26 08:19:37;;;;;;;0.20;0.10;;;;;;;17.46;37.49;101761.63;4977663;28;20050;-69
2023/05/26 08:22:04;;;;;;;3.05;0.90;;;;;;;17.53;37.60;101763.19;4980488;28;20061;-69
2023/05/26 08:24:31;;;;;;;4.50;0.20;;;;;;;17.58;37.22;101752.44;4980307;28;20090;-69
2023/05/26 08:26:58;;;;;;;2.40;0.20;;;;;;;17.61;37.35;101762.91;4981045;28;20051;-72
2023/05/26 08:29:25;;;;;;;3.42;0.20;;;;;;;17.71;37.04;101766.13;4977884;28;20046;-67
2023/05/26 08:31:52;;;;;;;1.27;0.20;;;;;;;17.75;36.23;101768.59;4975866;28;20435;-66
2023/05/26 08:34:19;;;;;;;0.55;0.20;;;;;;;17.79;36.04;101773.81;4979105;28;20042;-68
2023/05/26 08:36:48;;;;;;;0.85;0.20;;;;;;;17.84;34.86;101769.25;4979279;28;20502;-68
2023/05/26 08:39:15;;;;;;;1.42;0.22;;;;;;;17.89;35.41;101767.34;4971536;28;20572;-68
2023/05/26 08:41:49;;;;;;;0.22;0.15;;;;;;;17.84;35.19;101766.63;4980121;28;20487;-68
2023/05/26 08:44:17;;;;;;;2.67;0.20;;;;;;;17.94;35.00;101781.28;4975590;28;20053;-67
2023/05/26 08:46:46;;;;;;;1.77;0.10;;;;;;;17.96;34.41;101788.25;4981049;28;20047;-69
2023/05/26 08:49:17;;;;;;;0.50;0.10;;;;;;;17.97;34.97;101787.31;4976524;28;20042;-68
2023/05/26 08:51:47;;;;;;;1.75;0.65;;;;;;;18.03;34.68;101783.59;4976354;28;20550;-69
2023/05/26 08:54:15;;;;;;;2.13;0.13;;;;;;;18.05;35.15;101795.00;4974657;28;20057;-68
2023/05/26 08:56:42;;;;;;;1.15;0.10;;;;;;;18.10;34.86;101805.41;4980210;28;20053;-69
2023/05/26 08:59:10;;;;;;;0.50;0.10;;;;;;;18.11;34.45;101812.44;4975227;28;20038;-68
2023/05/26 09:01:37;;;;;;;1.27;0.05;;;;;;;18.10;34.93;101805.41;4975881;28;20053;-68
2023/05/26 09:04:04;;;;;;;4.78;1.02;;;;;;;18.11;34.70;101808.00;4974945;28;20053;-68
2023/05/26 09:06:31;;;;;;;3.72;0.10;;;;;;;18.15;34.57;101819.34;4976287;28;20057;-70
2023/05/26 09:08:58;;;;;;;2.10;0.10;;;;;;;18.15;34.12;101825.47;4977862;28;20410;-68
2023/05/26 09:11:27;;;;;;;0.22;0.10;;;;;;;18.14;33.77;101822.91;4974522;28;20494;-68
2023/05/26 09:13:56;;;;;;;2.45;0.05;;;;;;;18.11;33.86;101829.16;4975616;28;20043;-68
2023/05/26 09:16:28;;;;;;;0.22;0.00;;;;;;;18.13;33.23;101837.03;4976551;28;20494;-69
2023/05/26 09:18:59;;;;;;;1.95;0.10;;;;;;;18.10;33.44;101838.03;4969130;28;20043;-69
2023/05/26 09:21:27;;;;;;;4.75;0.10;;;;;;;18.14;33.07;101837.00;4977374;28;20078;-68
2023/05/26 09:23:55;;;;;;;1.20;0.10;;;;;;;18.02;32.11;101826.81;4975833;28;20403;-68
2023/05/26 09:26:29;;;;;;;0.70;0.10;;;;;;;18.14;32.09;101850.22;4979860;28;20042;-67
2023/05/26 09:28:56;;;;;;;0.32;0.10;;;;;;;18.12;32.32;101852.03;4977384;28;20054;-68
2023/05/26 09:31:24;;;;;;;2.58;0.10;;;;;;;18.12;32.33;101865.25;4973707;28;20057;-67
2023/05/26 09:33:51;;;;;;;3.03;0.10;;;;;;;18.09;32.04;101857.44;4972353;28;20153;-68
2023/05/26 09:36:23;;;;;;;0.25;0.08;;;;;;;18.07;31.34;101874.25;4974041;28;20119;-67
2023/05/26 09:38:52;;;;;;;3.35;0.40;;;;;;;18.05;31.18;101871.69;4977639;28;20053;-67
2023/05/26 09:41:19;;;;;;;2.75;0.10;;;;;;;18.03;31.38;101873.50;4978178;28;20134;-67
2023/05/26 09:43:50;;;;;;;5.72;0.20;;;;;;;18.05;31.21;101882.25;4975078;28;20057;-67
2023/05/26 09:46:22;;;;;;;0.47;0.10;;;;;;;18.04;30.61;101888.44;4978753;28;20054;-67
2023/05/26 09:48:51;;;;;;;1.65;0.10;;;;;;;18.04;31.03;101893.72;4975973;28;20058;-67
2023/05/26 09:51:21;;;;;;;0.08;0.00;;;;;;;18.06;31.64;101891.91;4979127;28;20049;-66
2023/05/26 09:53:48;;;;;;;0.65;0.00;;;;;;;18.03;30.90;101889.34;4976176;28;20513;-68
2023/05/26 09:56:20;;;;;;;4.28;0.25;;;;;;;18.08;30.88;101900.66;4977792;28;20053;-67
2023/05/26 09:58:50;;;;;;;0.00;0.00;;;;;;;18.10;30.12;101896.19;4978199;28;20054;-68
2023/05/26 10:01:19;;;;;;;2.35;0.10;;;;;;;18.10;29.50;101901.47;4974816;28;20050;-67
2023/05/26 10:03:47;;;;;;;0.17;0.10;;;;;;;18.08;29.73;101911.22;4973787;28;20055;-67
2023/05/26 10:06:17;;;;;;;1.27;0.20;;;;;;;18.08;29.91;101905.94;4980986;28;20043;-66
2023/05/26 10:08:47;;;;;;;0.28;0.10;;;;;;;18.06;30.23;101915.69;4977139;28;20070;-67
2023/05/26 10:11:14;;;;;;;0.30;0.10;;;;;;;17.93;29.71;101896.72;4980106;28;20120;-67
2023/05/26 10:13:42;;;;;;;0.32;0.10;;;;;;;18.12;29.51;101912.00;4978090;28;20487;-67
2023/05/26 10:16:12;;;;;;;0.90;0.00;;;;;;;18.09;29.76;101920.88;4976799;28;20095;-66
2023/05/26 10:18:40;;;;;;;1.77;0.10;;;;;;;18.10;30.36;101927.94;4981640;28;20501;-66
2023/05/26 10:21:10;;;;;;;0.22;0.10;;;;;;;18.05;30.49;101932.50;4975403;28;20129;-66
2023/05/26 10:23:43;;;;;;;0.82;0.10;;;;;;;18.02;30.51;101927.28;4977847;28;20089;-67
2023/05/26 10:26:17;;;;;;;0.50;0.10;;;;;;;17.90;31.14;101910.03;4977676;28;20061;-67
2023/05/26 10:28:50;;;;;;;1.65;0.10;;;;;;;18.05;30.91;101928.97;4980636;28;20145;-68
2023/05/26 10:31:31;;;;;;;6.07;0.10;;;;;;;18.04;30.82;101936.03;4974416;28;20081;-65
2023/05/26 10:33:58;;;;;;;2.78;0.15;;;;;;;18.04;30.13;101945.75;4979652;28;20734;-65
2023/05/26 10:36:26;;;;;;;2.10;0.10;;;;;;;18.01;29.39;101951.13;4981239;28;20137;-66
2023/05/26 10:38:55;;;;;;;4.00;0.10;;;;;;;17.97;29.89;101959.16;4979203;28;20545;-65
2023/05/26 10:41:32;;;;;;;3.22;0.08;;;;;;;17.95;30.16;101954.81;4980370;28;20137;-65
2023/05/26 10:44:00;;;;;;;1.85;0.10;;;;;;;17.94;31.02;101953.97;4978364;28;20056;-65
2023/05/26 10:46:39;;;;;;;2.50;0.20;;;;;;;17.97;30.84;101953.00;4981276;28;20105;-65
2023/05/26 10:49:19;;;;;;;3.72;0.10;;;;;;;17.99;30.73;101943.25;4980440;28;20047;-66
2023/05/26 10:51:50;;;;;;;3.13;0.10;;;;;;;18.01;30.39;101959.06;4980813;28;20057;-65
2023/05/26 10:54:22;;;;;;;0.55;0.00;;;;;;;18.01;29.77;101973.13;4977454;28;20053;-65
2023/05/26 10:56:51;;;;;;;1.55;0.00;;;;;;;17.88;29.21;101953.28;4980214;28;20046;-65
2023/05/26 10:59:22;;;;;;;1.10;0.20;;;;;;;17.97;29.16;101979.44;4981432;28;20046;-65
2023/05/26 11:01:54;;;;;;;2.85;0.50;;;;;;;17.93;28.77;101989.25;4981062;28;20054;-65
2023/05/26 11:04:22;;;;;;;0.10;0.00;;;;;;;17.90;28.78;101989.34;4982040;28;20053;-66
2023/05/26 11:06:51;;;;;;;0.98;0.00;;;;;;;17.84;29.03;101997.44;4983212;28;20074;-65
2023/05/26 11:09:22;;;;;;;1.02;0.00;;;;;;;17.80;29.64;101993.16;4977989;28;20625;-65
2023/05/26 11:11:54;;;;;;;2.50;0.00;;;;;;;17.78;29.43;101981.75;4979710;28;20058;-68
2023/05/26 11:14:26;;;;;;;1.23;0.10;;;;;;;17.79;30.16;101987.91;4980777;28;20061;-68
2023/05/26 11:16:57;;;;;;;1.42;0.00;;;;;;;17.68;30.07;101956.50;4979910;28;20078;-68
2023/05/26 11:19:29;;;;;;;4.50;0.00;;;;;;;17.77;29.25;101988.78;4978238;28;20129;-69
2023/05/26 11:21:56;;;;;;;0.20;0.10;;;;;;;17.75;29.52;101982.66;4983136;28;20044;-69
2023/05/26 11:24:23;;;;;;;0.93;0.00;;;;;;;17.80;29.27;101994.94;4977669;28;20057;-69
2023/05/26 11:26:50;;;;;;;0.95;0.03;;;;;;;17.72;29.12;101989.84;4981081;28;20053;-69
2023/05/26 11:29:18;;;;;;;0.40;0.00;;;;;;;17.73;29.25;102002.13;4980567;28;20054;-68
2023/05/26 11:31:48;;;;;;;3.92;0.00;;;;;;;17.73;28.84;101996.84;4983076;28;20047;-68